createdAt,value
2017-09-02T00:00:17.715Z,10.20
2017-09-02T00:02:45.284Z,8.77
2017-09-02T00:05:12.814Z,9.43
2017-09-02T00:07:40.364Z,8.55
2017-09-02T00:10:07.932Z,9.32
2017-09-02T00:12:35.464Z,9.88
2017-09-02T00:15:03.010Z,9.45
2017-09-02T00:17:30.567Z,10.05
2017-09-02T00:19:58.128Z,9.10
2017-09-02T00:22:25.691Z,8.57
2017-09-02T00:24:53.245Z,7.62
2017-09-02T00:27:20.892Z,7.87
2017-09-02T00:29:48.459Z,8.00
2017-09-02T00:32:16.113Z,7.55
2017-09-02T00:34:43.641Z,7.12
2017-09-02T00:37:11.217Z,7.95
2017-09-02T00:39:38.755Z,7.37
2017-09-02T00:42:06.300Z,7.03
2017-09-02T00:44:33.857Z,6.10
2017-09-02T00:47:01.420Z,6.03
2017-09-02T00:49:28.964Z,7.25
2017-09-02T00:51:56.527Z,7.00
2017-09-02T00:54:24.072Z,7.25
2017-09-02T00:56:51.617Z,7.28
2017-09-02T00:59:19.173Z,8.00
2017-09-02T01:01:46.747Z,7.40
2017-09-02T01:04:14.285Z,7.30
2017-09-02T01:06:41.864Z,7.75
2017-09-02T01:09:09.412Z,7.62
2017-09-02T01:11:36.973Z,7.85
2017-09-02T01:14:04.529Z,7.40
2017-09-02T01:16:32.191Z,8.52
2017-09-02T01:18:59.738Z,7.78
2017-09-02T01:21:27.276Z,9.18
2017-09-02T01:23:54.827Z,9.07
2017-09-02T01:26:22.366Z,7.97
2017-09-02T01:28:49.928Z,9.20
2017-09-02T01:31:17.480Z,8.02
2017-09-02T01:33:45.042Z,8.85
2017-09-02T01:36:12.594Z,10.13
2017-09-02T01:38:40.139Z,10.25
2017-09-02T01:41:07.738Z,10.10
2017-09-02T01:43:35.283Z,10.55
2017-09-02T01:46:02.853Z,10.20
2017-09-02T01:48:30.398Z,10.48
2017-09-02T01:50:57.946Z,10.38
2017-09-02T01:53:25.494Z,10.60
2017-09-02T01:55:53.065Z,9.65
2017-09-02T01:58:20.610Z,9.77
2017-09-02T02:00:48.158Z,11.02
2017-09-02T02:03:15.734Z,11.40
2017-09-02T02:05:43.269Z,10.38
2017-09-02T02:08:10.835Z,10.80
2017-09-02T02:10:38.376Z,12.13
2017-09-02T02:13:05.948Z,10.55
2017-09-02T02:15:33.510Z,12.00
2017-09-02T02:18:01.087Z,11.25
2017-09-02T02:20:28.647Z,11.88
2017-09-02T02:22:56.207Z,11.50
2017-09-02T02:25:23.761Z,11.63
2017-09-02T02:27:51.329Z,12.10
2017-09-02T02:30:18.866Z,10.27
2017-09-02T02:32:46.447Z,10.27
2017-09-02T02:35:13.995Z,10.52
2017-09-02T02:37:41.561Z,10.50
2017-09-02T02:40:09.090Z,10.20
2017-09-02T02:42:36.668Z,10.20
2017-09-02T02:45:04.222Z,10.43
2017-09-02T02:47:31.785Z,9.45
2017-09-02T02:49:59.324Z,9.82
2017-09-02T02:52:26.874Z,10.80
2017-09-02T02:54:54.432Z,9.93
2017-09-02T02:57:21.968Z,10.02
2017-09-02T02:59:49.607Z,10.20
2017-09-02T03:02:17.149Z,10.27
2017-09-02T03:04:44.690Z,10.23
2017-09-02T03:07:12.262Z,10.18
2017-09-02T03:09:39.823Z,10.23
2017-09-02T03:12:07.380Z,10.32
2017-09-02T03:14:34.924Z,10.25
2017-09-02T03:17:02.462Z,10.90
2017-09-02T03:19:30.041Z,9.73
2017-09-02T03:21:57.580Z,11.00
2017-09-02T03:24:25.137Z,10.20
2017-09-02T03:26:52.677Z,11.00
2017-09-02T03:29:20.244Z,8.80
2017-09-02T03:31:47.784Z,9.70
2017-09-02T03:34:15.341Z,9.63
2017-09-02T03:36:42.893Z,10.65
2017-09-02T03:39:10.483Z,10.30
2017-09-02T03:41:38.026Z,10.45
2017-09-02T03:44:05.585Z,10.02
2017-09-02T03:46:33.150Z,9.90
2017-09-02T03:49:00.678Z,9.75
2017-09-02T03:51:28.233Z,9.60
2017-09-02T03:53:55.774Z,10.45
2017-09-02T03:56:24.101Z,10.65
2017-09-02T03:58:51.661Z,11.70
2017-09-02T04:01:19.397Z,13.20
2017-09-02T04:03:47.001Z,11.30
2017-09-02T04:06:14.561Z,11.88
2017-09-02T04:08:42.133Z,11.05
2017-09-02T04:11:09.676Z,11.05
2017-09-02T04:13:37.222Z,11.43
2017-09-02T04:16:04.777Z,10.48
2017-09-02T04:18:32.332Z,11.32
2017-09-02T04:20:59.860Z,11.55
2017-09-02T04:23:27.424Z,11.05
2017-09-02T04:25:54.980Z,12.63
2017-09-02T04:28:22.533Z,10.85
2017-09-02T04:30:50.096Z,11.68
2017-09-02T04:33:17.660Z,10.13
2017-09-02T04:35:45.217Z,11.20
2017-09-02T04:38:12.771Z,9.98
2017-09-02T04:40:40.301Z,9.80
2017-09-02T04:43:07.858Z,9.95
2017-09-02T04:45:35.391Z,11.35
2017-09-02T04:48:02.953Z,11.85
2017-09-02T04:50:30.505Z,13.27
2017-09-02T04:52:58.058Z,11.52
2017-09-02T04:55:25.606Z,10.27
2017-09-02T04:57:53.158Z,11.60
2017-09-02T05:00:20.726Z,11.98
2017-09-02T05:02:48.936Z,13.77
2017-09-02T05:05:16.468Z,11.27
2017-09-02T05:07:44.017Z,12.77
2017-09-02T05:10:11.565Z,12.20
2017-09-02T05:12:39.109Z,12.65
2017-09-02T05:15:06.735Z,14.15
2017-09-02T05:17:34.285Z,13.90
2017-09-02T05:20:01.853Z,13.02
2017-09-02T05:22:29.402Z,14.13
2017-09-02T05:24:56.977Z,13.05
2017-09-02T05:27:24.534Z,14.05
2017-09-02T05:29:52.096Z,13.93
2017-09-02T05:32:19.633Z,15.10
2017-09-02T05:34:47.193Z,13.20
2017-09-02T05:37:14.729Z,12.70
2017-09-02T05:39:42.256Z,12.55
2017-09-02T05:42:09.817Z,12.40
2017-09-02T05:44:37.381Z,12.05
2017-09-02T05:47:04.939Z,11.75
2017-09-02T05:49:32.475Z,12.00
2017-09-02T05:52:00.014Z,10.93
2017-09-02T05:54:27.600Z,11.15
2017-09-02T05:56:55.154Z,11.12
2017-09-02T05:59:22.718Z,10.82
2017-09-02T06:01:50.276Z,10.77
2017-09-02T06:04:17.837Z,10.57
2017-09-02T06:06:45.370Z,11.50
2017-09-02T06:09:12.914Z,10.65
2017-09-02T06:11:40.465Z,9.32
2017-09-02T06:14:08.002Z,9.73
2017-09-02T06:16:35.581Z,8.98
2017-09-02T06:19:03.125Z,9.48
2017-09-02T06:21:30.699Z,10.02
2017-09-02T06:23:58.245Z,10.60
2017-09-02T06:26:25.801Z,9.32
2017-09-02T06:28:53.351Z,10.90
2017-09-02T06:31:20.878Z,9.98
2017-09-02T06:33:48.439Z,10.50
2017-09-02T06:36:15.970Z,10.23
2017-09-02T06:38:44.305Z,8.43
2017-09-02T06:41:11.849Z,9.73
2017-09-02T06:43:39.421Z,12.18
2017-09-02T06:46:07.066Z,11.32
2017-09-02T06:48:34.639Z,10.50
2017-09-02T06:51:02.214Z,11.20
2017-09-02T06:53:29.768Z,11.27
2017-09-02T06:55:57.317Z,12.10
2017-09-02T06:58:24.894Z,11.43
2017-09-02T07:00:52.440Z,11.90
2017-09-02T07:03:19.998Z,12.50
2017-09-02T07:05:47.973Z,11.82
2017-09-02T07:08:15.545Z,11.02
2017-09-02T07:10:43.177Z,11.45
2017-09-02T07:13:10.722Z,11.23
2017-09-02T07:15:38.301Z,11.40
2017-09-02T07:18:05.845Z,12.18
2017-09-02T07:20:33.439Z,11.40
2017-09-02T07:23:00.981Z,11.68
2017-09-02T07:25:28.565Z,14.30
2017-09-02T07:27:56.110Z,12.20
2017-09-02T07:30:23.700Z,12.30
2017-09-02T07:32:51.318Z,12.75
2017-09-02T07:35:18.872Z,11.50
2017-09-02T07:37:46.437Z,10.23
2017-09-02T07:40:13.985Z,10.93
2017-09-02T07:42:41.517Z,8.70
2017-09-02T07:45:09.069Z,8.93
2017-09-02T07:47:36.599Z,8.30
2017-09-02T07:50:04.161Z,9.97
2017-09-02T07:52:31.705Z,8.33
2017-09-02T07:54:59.238Z,9.07
2017-09-02T07:57:26.778Z,8.47
2017-09-02T07:59:54.324Z,9.93
2017-09-02T08:02:21.888Z,9.40
2017-09-02T08:04:49.561Z,8.97
2017-09-02T08:07:17.117Z,9.80
2017-09-02T08:09:44.669Z,10.13
2017-09-02T08:12:12.233Z,10.03
2017-09-02T08:14:39.799Z,9.40
2017-09-02T08:17:07.573Z,10.20
2017-09-02T08:19:35.125Z,9.50
2017-09-02T08:22:02.665Z,9.27
2017-09-02T08:24:30.192Z,8.33
2017-09-02T08:26:57.751Z,9.10
2017-09-02T08:29:25.398Z,9.90
2017-09-02T08:31:52.970Z,9.87
2017-09-02T08:34:20.527Z,9.63
2017-09-02T08:36:48.067Z,9.07
2017-09-02T08:39:21.396Z,8.40
2017-09-02T08:41:48.957Z,9.77
2017-09-02T08:44:16.501Z,10.13
2017-09-02T08:46:44.053Z,9.17
2017-09-02T08:49:11.608Z,9.27
2017-09-02T08:51:39.132Z,10.23
2017-09-02T08:54:06.683Z,9.20
2017-09-02T08:56:34.215Z,9.60
2017-09-02T08:59:01.780Z,8.23
2017-09-02T09:01:29.324Z,8.27
2017-09-02T09:03:56.873Z,7.50
2017-09-02T09:06:24.412Z,7.47
2017-09-02T09:08:51.964Z,7.60
2017-09-02T09:11:19.497Z,8.57
2017-09-02T09:13:47.053Z,7.70
2017-09-02T09:16:14.597Z,8.10
2017-09-02T09:18:42.154Z,7.57
2017-09-02T09:21:09.710Z,8.67
2017-09-02T09:23:37.244Z,9.20
2017-09-02T09:26:04.797Z,9.30
2017-09-02T09:28:32.360Z,8.50
2017-09-02T09:30:59.921Z,8.13
2017-09-02T09:33:27.470Z,8.53
2017-09-02T09:35:55.012Z,8.67
2017-09-02T09:38:22.565Z,8.10
2017-09-02T09:40:50.097Z,7.70
2017-09-02T09:43:17.633Z,6.80
2017-09-02T09:45:45.182Z,6.23
2017-09-02T09:48:12.727Z,7.53
2017-09-02T09:50:40.273Z,6.00
2017-09-02T09:53:07.809Z,6.47
2017-09-02T09:55:35.381Z,5.27
2017-09-02T09:58:02.942Z,6.27
2017-09-02T10:00:30.505Z,5.63
2017-09-02T10:02:58.022Z,5.53
2017-09-02T10:05:25.568Z,5.80
2017-09-02T10:07:53.892Z,5.23
2017-09-02T10:10:21.421Z,5.30
2017-09-02T10:12:49.004Z,4.80
2017-09-02T10:15:16.543Z,4.53
2017-09-02T10:17:44.113Z,4.70
2017-09-02T10:20:11.638Z,4.70
2017-09-02T10:22:39.158Z,4.10
2017-09-02T10:25:06.730Z,3.60
2017-09-02T10:27:34.261Z,4.70
2017-09-02T10:30:01.813Z,4.20
2017-09-02T10:32:29.337Z,4.70
2017-09-02T10:34:56.889Z,4.00
2017-09-02T10:37:24.453Z,4.20
2017-09-02T10:39:51.986Z,4.40
2017-09-02T10:42:19.568Z,4.13
2017-09-02T10:44:47.297Z,3.37
2017-09-02T10:47:14.857Z,4.17
2017-09-02T10:49:42.409Z,4.00
2017-09-02T10:52:09.964Z,3.10
2017-09-02T10:54:37.525Z,3.30
2017-09-02T10:57:05.049Z,3.47
2017-09-02T10:59:32.605Z,3.33
2017-09-02T11:02:00.137Z,3.40
2017-09-02T11:04:28.679Z,4.40
2017-09-02T11:06:56.206Z,3.67
2017-09-02T11:09:24.537Z,3.10
2017-09-02T11:11:52.082Z,3.00
2017-09-02T11:14:19.613Z,4.13
2017-09-02T11:16:47.210Z,4.50
2017-09-02T11:19:14.748Z,3.77
2017-09-02T11:21:42.290Z,4.30
2017-09-02T11:24:09.850Z,4.13
2017-09-02T11:26:37.442Z,3.97
2017-09-02T11:29:05.020Z,4.00
2017-09-02T11:31:32.569Z,4.03
2017-09-02T11:34:00.122Z,4.13
2017-09-02T11:36:27.671Z,4.90
2017-09-02T11:38:55.253Z,3.90
2017-09-02T11:41:22.794Z,4.73
2017-09-02T11:43:50.360Z,4.40
2017-09-02T11:46:17.921Z,4.10
2017-09-02T11:48:45.645Z,3.70
2017-09-02T11:51:13.213Z,4.00
2017-09-02T11:53:40.753Z,3.93
2017-09-02T11:56:08.305Z,4.27
2017-09-02T11:58:35.870Z,4.23
2017-09-02T12:01:03.410Z,3.90
2017-09-02T12:03:30.966Z,3.67
2017-09-02T12:05:58.505Z,4.20
2017-09-02T12:08:26.068Z,4.43
2017-09-02T12:10:53.620Z,3.90
2017-09-02T12:13:21.166Z,3.80
2017-09-02T12:15:48.712Z,4.70
2017-09-02T12:18:16.277Z,4.13
2017-09-02T12:20:43.828Z,4.73
2017-09-02T12:23:11.425Z,3.73
2017-09-02T12:25:38.989Z,4.53
2017-09-02T12:28:06.565Z,4.63
2017-09-02T12:30:34.134Z,3.97
2017-09-02T12:33:01.674Z,4.40
2017-09-02T12:35:29.333Z,4.13
2017-09-02T12:37:56.873Z,4.30
2017-09-02T12:40:24.437Z,4.20
2017-09-02T12:42:51.966Z,4.57
2017-09-02T12:45:19.518Z,4.00
2017-09-02T12:47:47.097Z,4.80
2017-09-02T12:50:14.635Z,4.20
2017-09-02T12:52:42.181Z,4.30
2017-09-02T12:55:09.764Z,4.50
2017-09-02T12:57:37.312Z,3.83
2017-09-02T13:00:04.877Z,4.40
2017-09-02T13:02:32.428Z,4.17
2017-09-02T13:04:59.953Z,5.10
2017-09-02T13:07:27.508Z,5.00
2017-09-02T13:09:55.041Z,4.87
2017-09-02T13:12:22.606Z,4.47
2017-09-02T13:14:50.138Z,4.37
2017-09-02T13:17:17.698Z,4.00
2017-09-02T13:19:45.273Z,4.10
2017-09-02T13:22:12.812Z,4.07
2017-09-02T13:24:40.367Z,4.23
2017-09-02T13:27:07.917Z,3.63
2017-09-02T13:29:35.469Z,4.30
2017-09-02T13:32:03.129Z,4.20
2017-09-02T13:37:04.724Z,2.90
2017-09-02T13:39:32.257Z,2.50
2017-09-02T13:41:59.812Z,2.23
2017-09-02T13:44:27.372Z,2.43
2017-09-02T13:46:54.915Z,2.07
2017-09-02T13:49:22.476Z,2.40
2017-09-02T13:51:50.013Z,2.07
2017-09-02T13:54:17.593Z,2.60
2017-09-02T13:56:45.120Z,1.90
2017-09-02T13:59:12.650Z,1.70
2017-09-02T14:01:40.218Z,2.60
2017-09-02T14:04:07.781Z,2.40
2017-09-02T14:06:35.317Z,2.97
2017-09-02T14:09:02.876Z,2.47
2017-09-02T14:11:31.202Z,2.40
2017-09-02T14:13:58.856Z,2.60
2017-09-02T14:16:26.397Z,2.00
2017-09-02T14:18:54.002Z,2.10
2017-09-02T14:21:21.537Z,2.70
2017-09-02T14:23:49.113Z,2.20
2017-09-02T14:26:16.747Z,3.03
2017-09-02T14:28:44.315Z,2.47
2017-09-02T14:31:11.857Z,2.63
2017-09-02T14:33:39.434Z,2.97
2017-09-02T14:36:06.977Z,2.30
2017-09-02T14:38:34.537Z,2.80
2017-09-02T14:41:02.085Z,2.90
2017-09-02T14:43:29.646Z,2.63
2017-09-02T14:45:57.965Z,2.30
2017-09-02T14:48:25.506Z,2.73
2017-09-02T14:50:53.077Z,3.00
2017-09-02T14:53:20.606Z,2.50
2017-09-02T14:55:48.153Z,2.17
2017-09-02T14:58:15.720Z,2.30
2017-09-02T15:00:43.250Z,3.10
2017-09-02T15:03:10.793Z,2.50
2017-09-02T15:05:38.361Z,2.67
2017-09-02T15:08:05.894Z,2.33
2017-09-02T15:10:33.460Z,2.80
2017-09-02T15:13:00.999Z,3.30
2017-09-02T15:15:28.532Z,2.90
2017-09-02T15:17:56.126Z,3.10
2017-09-02T15:20:23.695Z,2.97
2017-09-02T15:22:51.244Z,3.20
2017-09-02T15:25:18.785Z,3.20
2017-09-02T15:27:46.350Z,3.50
2017-09-02T15:30:13.889Z,3.27
2017-09-02T15:32:41.430Z,3.30
2017-09-02T15:35:08.977Z,3.00
2017-09-02T15:37:36.533Z,3.27
2017-09-02T15:40:04.129Z,3.20
2017-09-02T15:42:31.724Z,2.80
2017-09-02T15:44:59.293Z,3.10
2017-09-02T15:47:26.829Z,4.03
2017-09-02T15:49:54.472Z,3.10
2017-09-02T15:52:22.009Z,3.70
2017-09-02T15:54:49.592Z,3.40
2017-09-02T15:57:17.154Z,3.60
2017-09-02T15:59:44.682Z,3.80
2017-09-02T16:02:12.260Z,3.60
2017-09-02T16:04:39.804Z,4.07
2017-09-02T16:07:07.332Z,3.57
2017-09-02T16:09:34.896Z,4.10
2017-09-02T16:12:02.469Z,4.07
2017-09-02T16:14:30.006Z,4.10
2017-09-02T16:16:57.546Z,4.17
2017-09-02T16:19:25.100Z,3.77
2017-09-02T16:21:52.643Z,4.37
2017-09-02T16:24:20.230Z,5.20
2017-09-02T16:26:47.769Z,4.33
2017-09-02T16:29:15.321Z,4.33
2017-09-02T16:31:42.866Z,4.80
2017-09-02T16:34:10.455Z,3.50
2017-09-02T16:36:38.012Z,3.17
2017-09-02T16:39:05.582Z,3.67
2017-09-02T16:41:33.139Z,4.07
2017-09-02T16:44:00.709Z,3.30
2017-09-02T16:46:28.247Z,4.00
2017-09-02T16:48:55.776Z,4.47
2017-09-02T16:51:23.342Z,4.15
2017-09-02T16:53:50.885Z,3.93
2017-09-02T16:56:18.445Z,3.90
2017-09-02T16:58:45.993Z,5.10
2017-09-02T17:01:14.339Z,5.53
2017-09-02T17:03:41.871Z,4.27
2017-09-02T17:06:09.451Z,3.90
2017-09-02T17:08:36.990Z,3.55
2017-09-02T17:11:04.586Z,4.32
2017-09-02T17:13:32.124Z,3.75
2017-09-02T17:15:59.710Z,3.03
2017-09-02T17:18:27.271Z,2.90
2017-09-02T17:20:54.831Z,3.60
2017-09-02T17:23:22.430Z,3.10
2017-09-02T17:25:49.977Z,3.15
2017-09-02T17:28:17.515Z,3.37
2017-09-02T17:30:45.082Z,3.20
2017-09-02T17:33:12.650Z,2.83
2017-09-02T17:35:40.202Z,3.30
2017-09-02T17:38:07.756Z,2.97
2017-09-02T17:40:35.304Z,2.80
2017-09-02T17:43:02.945Z,2.40
2017-09-02T17:45:30.517Z,2.70
2017-09-02T17:47:58.050Z,2.50
2017-09-02T17:50:25.608Z,1.98
2017-09-02T17:52:53.174Z,2.55
2017-09-02T17:55:20.708Z,2.50
2017-09-02T17:57:48.292Z,2.60
2017-09-02T18:00:15.846Z,2.25
2017-09-02T18:02:43.404Z,2.37
2017-09-02T18:05:11.000Z,2.70
2017-09-02T18:07:38.550Z,2.47
2017-09-02T18:10:06.113Z,2.78
2017-09-02T18:12:33.659Z,3.12
2017-09-02T18:15:01.228Z,2.90
2017-09-02T18:17:28.757Z,2.85
2017-09-02T18:19:56.341Z,3.10
2017-09-02T18:22:23.889Z,3.17
2017-09-02T18:24:51.454Z,2.95
2017-09-02T18:27:19.012Z,3.12
2017-09-02T18:29:46.561Z,3.12
2017-09-02T18:32:14.145Z,3.90
2017-09-02T18:34:41.681Z,3.20
2017-09-02T18:37:09.266Z,3.55
2017-09-02T18:39:36.809Z,3.90
2017-09-02T18:42:04.404Z,3.78
2017-09-02T18:44:31.947Z,4.50
2017-09-02T18:46:59.501Z,4.20
2017-09-02T18:49:27.049Z,4.30
2017-09-02T18:51:54.586Z,5.40
2017-09-02T18:54:22.161Z,4.93
2017-09-02T18:56:49.845Z,4.53
2017-09-02T18:59:17.378Z,5.00
2017-09-02T19:01:44.909Z,4.85
2017-09-02T19:04:12.494Z,5.00
2017-09-02T19:06:40.038Z,20.10
2017-09-02T19:09:07.593Z,32.40
2017-09-02T19:11:35.165Z,8.20
2017-09-02T19:14:02.722Z,5.85
2017-09-02T19:16:30.322Z,5.53
2017-09-02T19:18:57.857Z,4.78
2017-09-02T19:21:25.391Z,4.55
2017-09-02T19:23:52.951Z,4.87
2017-09-02T19:26:20.524Z,4.37
2017-09-02T19:28:48.085Z,4.53
2017-09-02T19:31:15.628Z,4.20
2017-09-02T19:33:43.189Z,4.30
2017-09-02T19:36:10.725Z,4.75
2017-09-02T19:38:38.265Z,3.85
2017-09-02T19:41:05.832Z,4.40
2017-09-02T19:43:33.357Z,4.72
2017-09-02T19:46:00.921Z,3.87
2017-09-02T19:48:28.474Z,3.97
2017-09-02T19:50:56.016Z,4.40
2017-09-02T19:53:24.444Z,4.90
2017-09-02T19:55:51.982Z,3.85
2017-09-02T19:58:19.568Z,3.95
2017-09-02T20:00:47.218Z,4.75
2017-09-02T20:03:14.764Z,4.97
2017-09-02T20:05:42.303Z,4.80
2017-09-02T20:08:09.872Z,5.35
2017-09-02T20:10:37.401Z,4.70
2017-09-02T20:13:05.001Z,4.30
2017-09-02T20:15:32.537Z,4.70
2017-09-02T20:18:00.092Z,4.65
2017-09-02T20:20:27.657Z,4.43
2017-09-02T20:22:55.185Z,4.80
2017-09-02T20:25:22.737Z,5.00
2017-09-02T20:27:50.273Z,5.30
2017-09-02T20:30:17.853Z,4.50
2017-09-02T20:32:45.381Z,4.65
2017-09-02T20:35:12.946Z,4.62
2017-09-02T20:37:40.481Z,4.97
2017-09-02T20:40:08.033Z,4.60
2017-09-02T20:42:35.565Z,5.40
2017-09-02T20:45:03.128Z,5.93
2017-09-02T20:47:30.653Z,5.07
2017-09-02T20:49:58.210Z,5.55
2017-09-02T20:52:25.750Z,4.90
2017-09-02T20:54:53.315Z,5.85
2017-09-02T20:57:20.850Z,5.78
2017-09-02T20:59:48.386Z,5.53
2017-09-02T21:02:15.937Z,5.80
2017-09-02T21:04:43.463Z,4.97
2017-09-02T21:07:11.019Z,5.55
2017-09-02T21:09:38.553Z,5.57
2017-09-02T21:12:06.104Z,5.50
2017-09-02T21:14:33.665Z,6.05
2017-09-02T21:17:01.214Z,5.22
2017-09-02T21:19:28.773Z,5.18
2017-09-02T21:21:56.329Z,5.65
2017-09-02T21:24:23.869Z,5.20
2017-09-02T21:26:51.414Z,6.12
2017-09-02T21:29:18.973Z,6.90
2017-09-02T21:31:46.544Z,7.47
2017-09-02T21:34:14.317Z,6.80
2017-09-02T21:36:41.872Z,8.05
2017-09-02T21:39:09.418Z,7.80
2017-09-02T21:41:36.978Z,7.47
2017-09-02T21:44:04.630Z,8.05
2017-09-02T21:46:32.182Z,7.18
2017-09-02T21:48:59.721Z,7.25
2017-09-02T21:51:27.279Z,8.18
2017-09-02T21:53:54.836Z,8.02
2017-09-02T21:56:22.354Z,8.85
2017-09-02T21:58:49.912Z,10.35
2017-09-02T22:01:17.458Z,9.48
2017-09-02T22:03:45.108Z,8.93
2017-09-02T22:06:12.656Z,8.45
2017-09-02T22:08:40.226Z,8.95
2017-09-02T22:11:07.784Z,9.05
2017-09-02T22:13:35.333Z,10.80
2017-09-02T22:16:02.867Z,9.23
2017-09-02T22:18:30.385Z,8.80
2017-09-02T22:20:57.945Z,10.27
2017-09-02T22:23:25.477Z,8.23
2017-09-02T22:25:53.041Z,9.40
2017-09-02T22:28:20.584Z,10.43
2017-09-02T22:30:48.112Z,11.63
2017-09-02T22:33:15.686Z,11.55
2017-09-02T22:35:43.221Z,9.75
2017-09-02T22:38:10.784Z,9.88
2017-09-02T22:40:38.320Z,9.75
2017-09-02T22:43:05.884Z,10.23
2017-09-02T22:45:33.425Z,11.07
2017-09-02T22:48:00.952Z,11.05
2017-09-02T22:50:28.518Z,10.48
2017-09-02T22:52:56.098Z,10.65
2017-09-02T22:55:23.649Z,10.23
2017-09-02T22:57:51.189Z,12.40
2017-09-02T23:00:18.743Z,9.77
2017-09-02T23:02:46.289Z,11.48
2017-09-02T23:05:13.831Z,13.57
2017-09-02T23:07:41.405Z,12.30
2017-09-02T23:10:08.939Z,13.35
2017-09-02T23:12:36.502Z,12.50
2017-09-02T23:15:04.043Z,11.98
2017-09-02T23:17:31.645Z,11.35
2017-09-02T23:19:59.183Z,12.95
2017-09-02T23:22:26.742Z,12.32
2017-09-02T23:24:54.379Z,12.68
2017-09-02T23:27:21.920Z,12.73
2017-09-02T23:29:49.498Z,13.00
2017-09-02T23:32:17.049Z,14.40
2017-09-02T23:34:44.617Z,12.45
2017-09-02T23:37:12.160Z,15.63
2017-09-02T23:39:39.737Z,15.10
2017-09-02T23:42:07.281Z,15.43
2017-09-02T23:44:34.849Z,15.63
2017-09-02T23:47:02.401Z,15.25
2017-09-02T23:49:29.975Z,17.00
2017-09-02T23:51:57.541Z,17.60
2017-09-02T23:54:25.104Z,18.30
2017-09-02T23:56:52.677Z,17.20
2017-09-02T23:59:20.223Z,14.73
